createdAt,value
2018-10-21T00:00:58.218Z,35.10
2018-10-21T00:01:58.216Z,34.70
2018-10-21T00:02:58.235Z,33.50
2018-10-21T00:03:58.191Z,34.20
2018-10-21T00:04:58.205Z,35.80
2018-10-21T00:05:58.197Z,35.70
2018-10-21T00:06:58.235Z,36.30
2018-10-21T00:07:58.214Z,35.80
2018-10-21T00:08:58.229Z,37.00
2018-10-21T00:09:58.226Z,39.10
2018-10-21T00:10:58.192Z,38.20
2018-10-21T00:11:58.238Z,39.20
2018-10-21T00:12:58.197Z,39.60
2018-10-21T00:13:58.193Z,37.00
2018-10-21T00:14:59.767Z,37.20
2018-10-21T00:15:58.198Z,37.10
2018-10-21T00:16:58.187Z,36.80
2018-10-21T00:17:58.201Z,37.00
2018-10-21T00:18:58.219Z,36.70
2018-10-21T00:19:58.230Z,36.50
2018-10-21T00:20:58.202Z,37.30
2018-10-21T00:21:58.219Z,36.00
2018-10-21T00:22:58.299Z,36.60
2018-10-21T00:23:58.231Z,34.80
2018-10-21T00:24:58.196Z,36.60
2018-10-21T00:25:58.227Z,34.60
2018-10-21T00:26:58.226Z,34.70
2018-10-21T00:27:58.243Z,33.90
2018-10-21T00:28:58.195Z,34.10
2018-10-21T00:29:58.192Z,35.80
2018-10-21T00:30:58.197Z,35.70
2018-10-21T00:31:58.199Z,35.40
2018-10-21T00:32:58.197Z,34.90
2018-10-21T00:33:58.208Z,34.10
2018-10-21T00:34:58.246Z,34.30
2018-10-21T00:35:58.228Z,35.40
2018-10-21T00:36:58.214Z,35.40
2018-10-21T00:37:58.216Z,34.40
2018-10-21T00:38:58.308Z,34.80
2018-10-21T00:39:58.193Z,34.60
2018-10-21T00:40:58.205Z,35.50
2018-10-21T00:41:58.198Z,35.20
2018-10-21T00:42:58.199Z,36.00
2018-10-21T00:43:58.225Z,35.30
2018-10-21T00:44:58.265Z,34.00
2018-10-21T00:45:58.198Z,34.50
2018-10-21T00:46:58.198Z,33.50
2018-10-21T00:47:58.203Z,33.00
2018-10-21T00:48:59.713Z,30.30
2018-10-21T00:49:59.195Z,32.30
2018-10-21T00:50:59.778Z,31.80
2018-10-21T00:51:58.207Z,32.00
2018-10-21T00:52:58.217Z,33.80
2018-10-21T00:53:59.693Z,32.70
2018-10-21T00:54:58.303Z,31.90
2018-10-21T00:55:58.198Z,33.50
2018-10-21T00:56:58.246Z,33.30
2018-10-21T00:57:58.231Z,33.60
2018-10-21T00:58:58.201Z,32.50
2018-10-21T00:59:58.198Z,33.20
2018-10-21T01:00:58.206Z,32.30
2018-10-21T01:01:58.202Z,34.00
2018-10-21T01:02:58.238Z,33.50
2018-10-21T01:03:58.246Z,33.00
2018-10-21T01:04:58.203Z,33.30
2018-10-21T01:05:58.204Z,35.00
2018-10-21T01:06:58.219Z,33.80
2018-10-21T01:07:58.233Z,35.30
2018-10-21T01:08:58.228Z,34.80
2018-10-21T01:09:58.229Z,34.70
2018-10-21T01:10:58.231Z,37.20
2018-10-21T01:11:58.256Z,36.40
2018-10-21T01:12:58.206Z,35.00
2018-10-21T01:13:58.203Z,35.60
2018-10-21T01:14:58.229Z,36.50
2018-10-21T01:15:58.204Z,38.00
2018-10-21T01:16:58.203Z,37.70
2018-10-21T01:17:58.204Z,38.00
2018-10-21T01:18:58.206Z,36.10
2018-10-21T01:19:58.224Z,36.00
2018-10-21T01:20:58.260Z,37.10
2018-10-21T01:21:58.240Z,39.20
2018-10-21T01:22:58.244Z,37.80
2018-10-21T01:23:58.236Z,38.60
2018-10-21T01:24:58.239Z,40.20
2018-10-21T01:25:58.201Z,40.90
2018-10-21T01:26:58.217Z,43.70
2018-10-21T01:27:58.198Z,41.60
2018-10-21T01:28:58.208Z,41.70
2018-10-21T01:29:58.199Z,42.80
2018-10-21T01:30:58.252Z,41.60
2018-10-21T01:31:58.206Z,40.20
2018-10-21T01:32:58.259Z,40.40
2018-10-21T01:33:58.202Z,40.70
2018-10-21T01:34:58.211Z,41.90
2018-10-21T01:35:58.224Z,44.80
2018-10-21T01:36:58.260Z,43.80
2018-10-21T01:37:58.561Z,42.10
2018-10-21T01:38:58.217Z,41.20
2018-10-21T01:39:58.211Z,41.90
2018-10-21T01:40:58.223Z,41.80
2018-10-21T01:41:58.218Z,43.30
2018-10-21T01:42:58.216Z,41.80
2018-10-21T01:43:58.196Z,41.40
2018-10-21T01:44:58.275Z,43.00
2018-10-21T01:45:58.202Z,42.10
2018-10-21T01:46:58.206Z,42.00
2018-10-21T01:48:00.211Z,42.30
2018-10-21T01:48:58.193Z,43.30
2018-10-21T01:49:58.211Z,43.50
2018-10-21T01:50:58.241Z,44.20
2018-10-21T01:51:59.699Z,44.40
2018-10-21T01:52:58.220Z,42.30
2018-10-21T01:53:58.207Z,43.70
2018-10-21T01:54:58.203Z,43.40
2018-10-21T01:55:58.219Z,42.70
2018-10-21T01:56:58.255Z,43.40
2018-10-21T01:57:58.204Z,44.00
2018-10-21T01:58:58.213Z,43.60
2018-10-21T01:59:58.203Z,44.80
2018-10-21T02:00:59.700Z,43.80
2018-10-21T02:01:58.188Z,46.40
2018-10-21T02:02:58.294Z,45.20
2018-10-21T02:03:58.189Z,43.40
2018-10-21T02:04:58.212Z,44.20
2018-10-21T02:05:59.702Z,42.00
2018-10-21T02:06:59.228Z,42.90
2018-10-21T02:07:59.706Z,42.60
2018-10-21T02:08:58.791Z,42.70
2018-10-21T02:09:59.723Z,43.10
2018-10-21T02:10:58.704Z,43.60
2018-10-21T02:11:59.708Z,44.00
2018-10-21T02:12:59.203Z,44.30
2018-10-21T02:14:00.811Z,44.80
2018-10-21T02:14:59.247Z,43.60
2018-10-21T02:15:58.705Z,44.30
2018-10-21T02:16:59.234Z,46.10
2018-10-21T02:17:59.205Z,45.90
2018-10-21T02:18:59.703Z,46.60
2018-10-21T02:19:59.233Z,45.00
2018-10-21T02:20:59.266Z,45.80
2018-10-21T02:21:59.724Z,43.20
2018-10-21T02:22:59.210Z,44.10
2018-10-21T02:23:59.704Z,42.20
2018-10-21T02:24:58.705Z,43.90
2018-10-21T02:25:59.217Z,45.10
2018-10-21T02:26:59.211Z,43.80
2018-10-21T02:28:00.207Z,44.10
2018-10-21T02:28:59.719Z,46.00
2018-10-21T02:29:59.230Z,46.00
2018-10-21T02:31:00.226Z,45.70
2018-10-21T02:31:59.212Z,45.20
2018-10-21T02:32:59.247Z,44.30
2018-10-21T02:33:59.220Z,45.30
2018-10-21T02:34:59.712Z,43.70
2018-10-21T02:35:59.207Z,46.20
2018-10-21T02:36:59.712Z,45.60
2018-10-21T02:37:59.709Z,47.10
2018-10-21T02:38:59.261Z,46.90
2018-10-21T02:39:59.209Z,48.60
2018-10-21T02:41:00.210Z,46.80
2018-10-21T02:41:58.190Z,46.80
2018-10-21T02:42:58.219Z,48.10
2018-10-21T02:43:58.189Z,46.90
2018-10-21T02:44:58.217Z,47.10
2018-10-21T02:45:58.204Z,48.40
2018-10-21T02:46:58.208Z,45.70
2018-10-21T02:47:58.193Z,45.30
2018-10-21T02:48:58.187Z,46.90
2018-10-21T02:49:58.184Z,46.10
2018-10-21T02:50:58.260Z,44.40
2018-10-21T02:51:58.193Z,45.90
2018-10-21T02:52:58.182Z,44.80
2018-10-21T02:53:58.189Z,45.10
2018-10-21T02:54:58.193Z,43.60
2018-10-21T02:55:58.230Z,45.60
2018-10-21T02:56:58.270Z,43.80
2018-10-21T02:57:58.199Z,45.00
2018-10-21T02:58:58.175Z,43.90
2018-10-21T02:59:58.186Z,44.10
2018-10-21T03:00:58.194Z,42.50
2018-10-21T03:01:58.176Z,43.30
2018-10-21T03:02:58.223Z,44.70
2018-10-21T03:03:58.207Z,42.30
2018-10-21T03:04:58.191Z,43.30
2018-10-21T03:05:58.215Z,42.90
2018-10-21T03:06:58.197Z,42.00
2018-10-21T03:07:58.203Z,40.80
2018-10-21T03:08:58.216Z,41.60
2018-10-21T03:09:58.200Z,42.30
2018-10-21T03:10:58.228Z,42.00
2018-10-21T03:11:58.182Z,42.00
2018-10-21T03:12:58.188Z,42.30
2018-10-21T03:13:58.188Z,40.70
2018-10-21T03:14:58.210Z,40.80
2018-10-21T03:15:58.181Z,40.10
2018-10-21T03:16:58.185Z,40.40
2018-10-21T03:17:58.186Z,40.90
2018-10-21T03:18:58.185Z,38.80
2018-10-21T03:19:58.172Z,39.50
2018-10-21T03:20:58.188Z,40.10
2018-10-21T03:21:58.232Z,40.00
2018-10-21T03:22:58.205Z,41.30
2018-10-21T03:23:58.203Z,42.00
2018-10-21T03:24:58.181Z,41.20
2018-10-21T03:25:58.219Z,39.60
2018-10-21T03:26:58.197Z,40.60
2018-10-21T03:27:58.198Z,39.80
2018-10-21T03:28:58.196Z,40.40
2018-10-21T03:29:58.171Z,39.40
2018-10-21T03:30:58.180Z,39.20
2018-10-21T03:31:58.228Z,37.50
2018-10-21T03:32:58.289Z,39.60
2018-10-21T03:33:58.257Z,40.10
2018-10-21T03:34:58.216Z,39.80
2018-10-21T03:35:58.185Z,39.70
2018-10-21T03:36:58.177Z,39.60
2018-10-21T03:37:58.181Z,38.50
2018-10-21T03:38:58.228Z,40.30
2018-10-21T03:39:58.228Z,40.20
2018-10-21T03:40:58.205Z,40.40
2018-10-21T03:41:58.177Z,39.10
2018-10-21T03:42:58.181Z,37.70
2018-10-21T03:43:58.171Z,38.50
2018-10-21T03:44:58.172Z,38.30
2018-10-21T03:45:58.228Z,38.80
2018-10-21T03:46:58.217Z,38.70
2018-10-21T03:47:58.171Z,38.20
2018-10-21T03:48:58.172Z,38.30
2018-10-21T03:49:58.180Z,37.60
2018-10-21T03:50:58.196Z,37.40
2018-10-21T03:51:58.221Z,36.20
2018-10-21T03:52:58.208Z,36.70
2018-10-21T03:53:58.208Z,36.70
2018-10-21T03:54:58.186Z,37.50
2018-10-21T03:55:58.167Z,38.50
2018-10-21T03:56:58.173Z,36.10
2018-10-21T03:57:58.196Z,36.80
2018-10-21T03:58:58.164Z,35.70
2018-10-21T03:59:58.161Z,36.60
2018-10-21T04:00:58.172Z,37.80
2018-10-21T04:01:58.171Z,38.00
2018-10-21T04:02:58.214Z,37.60
2018-10-21T04:03:58.183Z,38.50
2018-10-21T04:04:58.182Z,38.30
2018-10-21T04:05:58.179Z,38.90
2018-10-21T04:06:58.183Z,38.40
2018-10-21T04:07:58.158Z,37.00
2018-10-21T04:08:58.211Z,37.40
2018-10-21T04:09:58.256Z,38.10
2018-10-21T04:10:58.221Z,37.40
2018-10-21T04:11:58.168Z,36.90
2018-10-21T04:12:58.189Z,36.90
2018-10-21T04:13:58.155Z,36.20
2018-10-21T04:14:58.158Z,36.30
2018-10-21T04:15:58.220Z,35.90
2018-10-21T04:16:58.162Z,36.60
2018-10-21T04:17:58.185Z,38.60
2018-10-21T04:18:58.159Z,40.70
2018-10-21T04:19:58.163Z,39.40
2018-10-21T04:20:58.156Z,40.70
2018-10-21T04:21:58.196Z,39.50
2018-10-21T04:22:58.221Z,39.30
2018-10-21T04:23:58.153Z,40.50
2018-10-21T04:24:58.164Z,39.90
2018-10-21T04:25:58.156Z,40.20
2018-10-21T04:26:58.158Z,39.20
2018-10-21T04:27:58.181Z,39.60
2018-10-21T04:28:58.157Z,39.90
2018-10-21T04:29:58.152Z,40.60
2018-10-21T04:30:58.156Z,40.30
2018-10-21T04:31:58.172Z,41.20
2018-10-21T04:32:58.176Z,41.30
2018-10-21T04:33:58.209Z,41.10
2018-10-21T04:34:58.155Z,40.80
2018-10-21T04:35:58.152Z,38.90
2018-10-21T04:36:58.154Z,38.90
2018-10-21T04:37:58.144Z,37.40
2018-10-21T04:38:58.170Z,36.50
2018-10-21T04:39:58.268Z,37.80
2018-10-21T04:40:58.172Z,37.40
2018-10-21T04:41:58.158Z,36.70
2018-10-21T04:42:58.170Z,37.20
2018-10-21T04:43:58.186Z,38.10
2018-10-21T04:44:58.180Z,35.40
2018-10-21T04:45:58.173Z,35.70
2018-10-21T04:46:58.318Z,36.00
2018-10-21T04:47:58.141Z,37.40
2018-10-21T04:48:58.168Z,35.30
2018-10-21T04:49:58.185Z,36.00
2018-10-21T04:50:58.140Z,34.90
2018-10-21T04:51:58.152Z,36.20
2018-10-21T04:52:58.144Z,36.90
2018-10-21T04:53:58.155Z,37.90
2018-10-21T04:54:58.177Z,38.20
2018-10-21T04:55:58.160Z,39.00
2018-10-21T04:56:58.136Z,38.80
2018-10-21T04:57:58.182Z,39.60
2018-10-21T04:58:58.144Z,39.30
2018-10-21T04:59:58.174Z,39.50
2018-10-21T05:00:58.137Z,38.70
2018-10-21T05:01:58.140Z,37.80
2018-10-21T05:02:58.137Z,38.90
2018-10-21T05:03:58.194Z,38.70
2018-10-21T05:04:58.143Z,38.70
2018-10-21T05:05:58.144Z,38.40
2018-10-21T05:06:58.166Z,39.60
2018-10-21T05:07:58.149Z,39.30
2018-10-21T05:08:58.144Z,38.30
2018-10-21T05:09:58.215Z,39.40
2018-10-21T05:10:58.153Z,39.70
2018-10-21T05:11:58.147Z,39.00
2018-10-21T05:12:58.141Z,39.60
2018-10-21T05:13:59.807Z,36.40
2018-10-21T05:14:58.144Z,37.20
2018-10-21T05:15:58.174Z,37.20
2018-10-21T05:16:58.133Z,37.10
2018-10-21T05:17:58.149Z,37.70
2018-10-21T05:18:58.132Z,35.90
2018-10-21T05:19:58.195Z,36.60
2018-10-21T05:20:58.144Z,36.30
2018-10-21T05:21:58.174Z,37.70
2018-10-21T05:22:58.162Z,38.10
2018-10-21T05:23:58.198Z,37.40
2018-10-21T05:24:58.133Z,36.20
2018-10-21T05:25:58.120Z,38.40
2018-10-21T05:26:58.152Z,38.20
2018-10-21T05:27:58.190Z,38.10
2018-10-21T05:28:58.134Z,39.50
2018-10-21T05:29:58.167Z,38.00
2018-10-21T05:30:58.135Z,36.70
2018-10-21T05:31:58.124Z,37.10
2018-10-21T05:32:58.129Z,37.40
2018-10-21T05:33:58.123Z,36.60
2018-10-21T05:34:58.136Z,37.30
2018-10-21T05:35:58.135Z,37.60
2018-10-21T05:36:58.124Z,36.50
2018-10-21T05:37:58.191Z,37.20
2018-10-21T05:38:58.128Z,37.20
2018-10-21T05:39:58.138Z,34.30
2018-10-21T05:40:58.130Z,35.10
2018-10-21T05:41:58.127Z,35.50
2018-10-21T05:42:58.117Z,35.60
2018-10-21T05:43:58.111Z,33.80
2018-10-21T05:44:58.157Z,34.10
2018-10-21T05:45:58.769Z,34.90
2018-10-21T05:46:58.138Z,34.30
2018-10-21T05:47:58.131Z,33.90
2018-10-21T05:48:58.113Z,33.90
2018-10-21T05:49:58.135Z,34.60
2018-10-21T05:50:58.123Z,33.80
2018-10-21T05:51:58.189Z,34.50
2018-10-21T05:52:58.111Z,34.00
2018-10-21T05:53:58.137Z,34.30
2018-10-21T05:54:58.104Z,35.40
2018-10-21T05:55:58.119Z,34.80
2018-10-21T05:56:58.144Z,35.60
2018-10-21T05:57:58.205Z,35.40
2018-10-21T05:58:58.150Z,38.60
2018-10-21T05:59:58.104Z,36.70
2018-10-21T06:00:58.120Z,37.40
2018-10-21T06:01:58.103Z,36.40
2018-10-21T06:02:58.186Z,36.00
2018-10-21T06:03:58.132Z,36.20
2018-10-21T06:04:58.117Z,34.90
2018-10-21T06:05:58.094Z,34.00
2018-10-21T06:06:58.103Z,34.60
2018-10-21T06:07:58.123Z,34.30
2018-10-21T06:08:58.106Z,34.60
2018-10-21T06:09:58.118Z,33.90
2018-10-21T06:10:58.112Z,33.40
2018-10-21T06:11:58.103Z,33.00
2018-10-21T06:12:58.138Z,34.30
2018-10-21T06:13:58.102Z,33.10
2018-10-21T06:14:58.119Z,34.40
2018-10-21T06:15:58.133Z,33.40
2018-10-21T06:16:58.096Z,32.70
2018-10-21T06:17:58.112Z,33.40
2018-10-21T06:18:58.097Z,33.50
2018-10-21T06:19:58.093Z,32.20
2018-10-21T06:20:58.098Z,34.40
2018-10-21T06:21:58.111Z,33.30
2018-10-21T06:22:58.103Z,32.90
2018-10-21T06:23:58.092Z,32.80
2018-10-21T06:24:58.104Z,32.40
2018-10-21T06:25:58.135Z,32.10
2018-10-21T06:26:58.138Z,33.20
2018-10-21T06:27:58.091Z,31.90
2018-10-21T06:28:58.091Z,32.80
2018-10-21T06:29:58.147Z,34.00
2018-10-21T06:30:58.122Z,33.60
2018-10-21T06:31:58.103Z,33.80
2018-10-21T06:32:58.142Z,34.10
2018-10-21T06:33:58.100Z,32.90
2018-10-21T06:34:58.084Z,32.50
2018-10-21T06:35:58.100Z,32.80
2018-10-21T06:36:58.090Z,33.10
2018-10-21T06:37:58.084Z,33.10
2018-10-21T06:38:58.166Z,33.50
2018-10-21T06:39:58.094Z,33.20
2018-10-21T06:40:58.133Z,32.90
2018-10-21T06:41:58.090Z,31.20
2018-10-21T06:42:58.094Z,31.80
2018-10-21T06:43:58.092Z,32.00
2018-10-21T06:44:58.115Z,31.80
2018-10-21T06:45:58.081Z,30.90
2018-10-21T06:46:58.122Z,30.50
2018-10-21T06:47:58.084Z,30.60
2018-10-21T06:48:58.082Z,30.40
2018-10-21T06:49:58.101Z,29.90
2018-10-21T06:50:58.119Z,31.60
2018-10-21T06:51:58.100Z,31.90
2018-10-21T06:52:58.104Z,31.30
2018-10-21T06:53:58.087Z,31.50
2018-10-21T06:54:58.096Z,31.40
2018-10-21T06:55:58.074Z,30.90
2018-10-21T06:56:58.155Z,31.60
2018-10-21T06:57:58.102Z,30.60
2018-10-21T06:58:58.074Z,30.90
2018-10-21T06:59:58.094Z,31.60
2018-10-21T07:00:58.065Z,29.40
2018-10-21T07:01:58.098Z,31.00
2018-10-21T07:02:58.604Z,30.10
2018-10-21T07:03:58.152Z,29.80
2018-10-21T07:04:58.136Z,31.60
2018-10-21T07:05:58.092Z,30.90
2018-10-21T07:06:58.100Z,31.20
2018-10-21T07:08:00.653Z,31.60
2018-10-21T07:08:58.078Z,32.20
2018-10-21T07:09:59.252Z,31.10
2018-10-21T07:10:58.084Z,29.90
2018-10-21T07:11:58.091Z,31.30
2018-10-21T07:13:01.363Z,30.80
2018-10-21T07:13:58.084Z,30.30
2018-10-21T07:14:58.073Z,30.40
2018-10-21T07:15:58.177Z,30.50
2018-10-21T07:16:58.089Z,31.60
2018-10-21T07:17:58.077Z,29.40
2018-10-21T07:18:58.085Z,30.10
2018-10-21T07:19:58.115Z,32.30
2018-10-21T07:20:58.075Z,30.40
2018-10-21T07:21:58.098Z,30.50
2018-10-21T07:22:58.107Z,28.80
2018-10-21T07:23:58.093Z,30.50
2018-10-21T07:24:58.073Z,28.30
2018-10-21T07:25:58.085Z,27.60
2018-10-21T07:26:58.077Z,28.10
2018-10-21T07:27:58.163Z,27.80
2018-10-21T07:28:58.075Z,25.70
2018-10-21T07:29:58.089Z,25.50
2018-10-21T07:30:58.075Z,25.40
2018-10-21T07:31:58.089Z,24.70
2018-10-21T07:32:58.098Z,25.10
2018-10-21T07:33:58.111Z,24.70
2018-10-21T07:34:58.090Z,23.70
2018-10-21T07:35:58.104Z,22.90
2018-10-21T07:36:58.082Z,23.90
2018-10-21T07:37:58.085Z,23.30
2018-10-21T07:38:58.097Z,23.00
2018-10-21T07:39:58.150Z,22.80
2018-10-21T07:40:58.091Z,22.70
2018-10-21T07:41:58.101Z,22.80
2018-10-21T07:42:58.091Z,22.30
2018-10-21T07:43:58.090Z,22.80
2018-10-21T07:44:58.088Z,21.70
2018-10-21T07:45:58.136Z,22.20
2018-10-21T07:46:58.097Z,22.80
2018-10-21T07:47:58.145Z,21.70
2018-10-21T07:48:58.139Z,22.00
2018-10-21T07:49:58.104Z,21.60
2018-10-21T07:50:58.117Z,22.40
2018-10-21T07:51:58.212Z,21.80
2018-10-21T07:52:58.112Z,22.40
2018-10-21T07:53:58.140Z,22.50
2018-10-21T07:54:58.114Z,22.10
2018-10-21T07:55:58.118Z,20.80
2018-10-21T07:56:58.144Z,21.50
2018-10-21T07:57:58.160Z,22.00
2018-10-21T07:58:58.124Z,22.20
2018-10-21T07:59:58.140Z,21.80
2018-10-21T08:00:58.175Z,22.20
2018-10-21T08:01:58.133Z,22.10
2018-10-21T08:02:58.132Z,21.50
2018-10-21T08:03:58.165Z,22.20
2018-10-21T08:04:58.133Z,22.90
2018-10-21T08:05:58.169Z,22.50
2018-10-21T08:06:58.141Z,21.50
2018-10-21T08:07:58.149Z,22.10
2018-10-21T08:08:58.160Z,22.50
2018-10-21T08:09:58.201Z,22.70
2018-10-21T08:10:58.154Z,22.10
2018-10-21T08:11:58.167Z,23.00
2018-10-21T08:12:58.194Z,22.80
2018-10-21T08:13:58.162Z,23.60
2018-10-21T08:14:58.202Z,24.00
2018-10-21T08:15:58.198Z,23.40
2018-10-21T08:16:58.186Z,24.20
2018-10-21T08:17:58.167Z,23.20
2018-10-21T08:18:58.187Z,24.60
2018-10-21T08:19:58.184Z,24.00
2018-10-21T08:20:58.202Z,24.00
2018-10-21T08:21:58.228Z,23.40
2018-10-21T08:22:58.204Z,22.50
2018-10-21T08:23:58.219Z,23.10
2018-10-21T08:24:58.215Z,22.50
2018-10-21T08:25:58.221Z,24.70
2018-10-21T08:26:58.221Z,24.40
2018-10-21T08:27:58.219Z,23.80
2018-10-21T08:28:58.233Z,23.50
2018-10-21T08:29:58.235Z,24.70
2018-10-21T08:30:58.213Z,24.60
2018-10-21T08:31:58.230Z,26.30
2018-10-21T08:32:58.250Z,25.40
2018-10-21T08:33:58.276Z,25.00
2018-10-21T08:34:58.227Z,24.70
2018-10-21T08:35:58.286Z,26.60
2018-10-21T08:36:58.224Z,25.40
2018-10-21T08:37:58.238Z,25.40
2018-10-21T08:38:58.249Z,25.60
2018-10-21T08:39:58.279Z,26.20
2018-10-21T08:40:58.252Z,26.40
2018-10-21T08:41:58.259Z,25.60
2018-10-21T08:42:58.259Z,26.20
2018-10-21T08:43:58.256Z,26.60
2018-10-21T08:44:58.273Z,26.00
2018-10-21T08:45:58.285Z,26.40
2018-10-21T08:46:58.274Z,25.70
2018-10-21T08:47:59.884Z,25.20
2018-10-21T08:48:58.358Z,25.50
2018-10-21T08:49:58.372Z,26.60
2018-10-21T08:50:58.313Z,25.50
2018-10-21T08:51:58.299Z,26.60
2018-10-21T08:52:58.297Z,26.70
2018-10-21T08:53:58.313Z,25.70
2018-10-21T08:54:58.333Z,27.20
2018-10-21T08:55:58.403Z,26.50
2018-10-21T08:56:58.339Z,27.40
2018-10-21T08:57:58.362Z,27.00
2018-10-21T08:58:58.346Z,27.30
2018-10-21T08:59:58.332Z,26.10
2018-10-21T09:00:58.350Z,27.20
2018-10-21T09:01:58.378Z,27.60
2018-10-21T09:02:58.349Z,29.60
2018-10-21T09:03:58.350Z,27.70
2018-10-21T09:04:58.356Z,27.80
2018-10-21T09:05:58.390Z,28.60
2018-10-21T09:06:58.392Z,26.80
2018-10-21T09:07:58.383Z,27.10
2018-10-21T09:08:58.381Z,27.10
2018-10-21T09:09:58.483Z,26.50
2018-10-21T09:10:58.409Z,26.60
2018-10-21T09:11:58.395Z,27.00
2018-10-21T09:12:58.456Z,27.40
2018-10-21T09:13:58.426Z,27.60
2018-10-21T09:14:58.434Z,26.70
2018-10-21T09:15:58.443Z,27.70
2018-10-21T09:16:58.439Z,28.10
2018-10-21T09:17:58.450Z,27.20
2018-10-21T09:18:58.517Z,27.80
2018-10-21T09:19:58.460Z,27.40
2018-10-21T09:20:58.454Z,28.60
2018-10-21T09:21:58.505Z,27.20
2018-10-21T09:22:58.471Z,27.20
2018-10-21T09:23:58.466Z,28.60
2018-10-21T09:24:58.506Z,26.30
2018-10-21T09:25:58.481Z,26.90
2018-10-21T09:26:58.501Z,27.30
2018-10-21T09:27:58.555Z,28.00
2018-10-21T09:28:58.513Z,29.70
2018-10-21T09:29:58.520Z,29.20
2018-10-21T09:30:58.542Z,27.80
2018-10-21T09:31:58.526Z,29.10
2018-10-21T09:32:58.533Z,27.50
2018-10-21T09:33:58.631Z,27.00
2018-10-21T09:34:58.565Z,27.90
2018-10-21T09:35:58.602Z,27.80
2018-10-21T09:36:58.558Z,28.10
2018-10-21T09:37:58.575Z,27.00
2018-10-21T09:38:58.579Z,26.90
2018-10-21T09:39:58.642Z,27.90
2018-10-21T09:40:58.586Z,27.30
2018-10-21T09:41:58.604Z,28.10
2018-10-21T09:42:58.635Z,27.00
2018-10-21T09:43:58.606Z,27.50
2018-10-21T09:44:58.613Z,26.60
2018-10-21T09:45:58.678Z,27.00
2018-10-21T09:46:58.640Z,26.10
2018-10-21T09:47:58.635Z,25.10
2018-10-21T09:48:58.650Z,26.70
2018-10-21T09:49:58.704Z,26.70
2018-10-21T09:50:58.651Z,28.10
2018-10-21T09:51:58.705Z,27.20
2018-10-21T09:52:58.666Z,26.60
2018-10-21T09:53:58.685Z,26.40
2018-10-21T09:54:58.744Z,26.10
2018-10-21T09:55:58.706Z,26.00
2018-10-21T09:56:58.687Z,26.50
2018-10-21T09:57:58.727Z,26.40
2018-10-21T09:58:58.722Z,25.90
2018-10-21T09:59:58.730Z,26.80
2018-10-21T10:00:58.764Z,26.70
2018-10-21T10:01:58.727Z,25.90
2018-10-21T10:02:58.742Z,26.20
2018-10-21T10:03:58.830Z,25.90
2018-10-21T10:04:58.802Z,25.10
2018-10-21T10:05:58.784Z,24.90
2018-10-21T10:06:58.824Z,25.90
2018-10-21T10:07:58.798Z,24.80
2018-10-21T10:08:58.791Z,26.30
2018-10-21T10:09:58.860Z,25.60
2018-10-21T10:10:58.825Z,25.60
2018-10-21T10:11:58.810Z,24.40
2018-10-21T10:12:58.893Z,24.90
2018-10-21T10:13:58.832Z,25.30
2018-10-21T10:14:58.828Z,24.20
2018-10-21T10:15:58.898Z,26.00
2018-10-21T10:16:58.854Z,25.20
2018-10-21T10:17:58.854Z,25.20
2018-10-21T10:18:58.885Z,24.50
2018-10-21T10:19:58.880Z,25.20
2018-10-21T10:20:58.898Z,24.30
2018-10-21T10:21:58.941Z,23.60
2018-10-21T10:22:58.902Z,24.20
2018-10-21T10:23:59.033Z,23.40
2018-10-21T10:24:58.927Z,24.20
2018-10-21T10:25:58.946Z,22.90
2018-10-21T10:26:58.923Z,22.20
2018-10-21T10:27:58.988Z,23.10
2018-10-21T10:28:58.951Z,23.60
2018-10-21T10:29:58.953Z,22.10
2018-10-21T10:30:59.030Z,22.30
2018-10-21T10:31:58.980Z,22.80
2018-10-21T10:32:58.983Z,22.20
2018-10-21T10:33:59.001Z,22.20
2018-10-21T10:34:58.993Z,22.30
2018-10-21T10:35:59.023Z,22.40
2018-10-21T10:36:59.069Z,21.90
2018-10-21T10:37:59.017Z,20.60
2018-10-21T10:38:59.037Z,21.10
2018-10-21T10:39:59.062Z,20.30
2018-10-21T10:40:59.063Z,19.60
2018-10-21T10:41:59.283Z,20.30
2018-10-21T10:42:59.089Z,20.50
2018-10-21T10:43:59.073Z,20.20
2018-10-21T10:44:59.082Z,20.10
2018-10-21T10:45:59.180Z,19.50
2018-10-21T10:46:59.113Z,19.10
2018-10-21T10:47:59.107Z,19.60
2018-10-21T10:48:59.182Z,20.50
2018-10-21T10:49:59.150Z,20.30
2018-10-21T10:50:59.184Z,19.60
2018-10-21T10:51:59.196Z,20.00
2018-10-21T10:52:59.181Z,19.30
2018-10-21T10:53:59.180Z,20.30
2018-10-21T10:54:59.237Z,19.80
2018-10-21T10:55:59.194Z,19.30
2018-10-21T10:56:59.194Z,20.30
2018-10-21T10:57:59.247Z,19.10
2018-10-21T10:58:59.223Z,18.70
2018-10-21T10:59:59.485Z,17.80
2018-10-21T11:00:59.256Z,18.30
2018-10-21T11:01:59.255Z,18.00
2018-10-21T11:02:59.256Z,18.10
2018-10-21T11:03:59.283Z,17.10
2018-10-21T11:04:59.286Z,17.10
2018-10-21T11:05:59.277Z,16.70
2018-10-21T11:06:59.291Z,17.00
2018-10-21T11:07:59.297Z,15.60
2018-10-21T11:08:59.302Z,15.60
2018-10-21T11:09:59.333Z,15.20
2018-10-21T11:10:59.358Z,15.50
2018-10-21T11:11:59.336Z,16.40
2018-10-21T11:12:59.379Z,15.60
2018-10-21T11:13:59.372Z,15.90
2018-10-21T11:14:59.372Z,15.10
2018-10-21T11:15:59.402Z,15.20
2018-10-21T11:16:59.390Z,15.00
2018-10-21T11:17:59.444Z,15.50
2018-10-21T11:18:59.471Z,15.20
2018-10-21T11:19:59.416Z,15.30
2018-10-21T11:20:59.480Z,15.60
2018-10-21T11:21:59.502Z,15.20
2018-10-21T11:22:59.471Z,15.20
2018-10-21T11:23:59.477Z,15.50
2018-10-21T11:24:59.545Z,15.50
2018-10-21T11:25:59.496Z,16.10
2018-10-21T11:26:59.561Z,16.10
2018-10-21T11:27:59.532Z,15.60
2018-10-21T11:28:59.518Z,14.90
2018-10-21T11:29:59.524Z,15.00
2018-10-21T11:30:59.561Z,13.60
2018-10-21T11:31:59.581Z,13.60
2018-10-21T11:32:59.553Z,13.20
2018-10-21T11:33:59.606Z,14.40
2018-10-21T11:34:59.554Z,13.80
2018-10-21T11:35:59.576Z,14.30
2018-10-21T11:36:59.652Z,13.60
2018-10-21T11:37:59.581Z,14.10
2018-10-21T11:38:59.604Z,14.70
2018-10-21T11:39:59.613Z,14.30
2018-10-21T11:40:59.600Z,15.60
2018-10-21T11:41:59.620Z,16.30
2018-10-21T11:42:59.678Z,15.20
2018-10-21T11:43:59.630Z,15.70
2018-10-21T11:44:59.684Z,15.50
2018-10-21T11:45:59.721Z,16.00
2018-10-21T11:46:59.702Z,16.60
2018-10-21T11:47:59.674Z,14.70
2018-10-21T11:48:59.671Z,16.80
2018-10-21T11:49:59.671Z,17.10
2018-10-21T11:50:59.688Z,17.50
2018-10-21T11:51:59.740Z,17.20
2018-10-21T11:52:59.696Z,16.60
2018-10-21T11:53:59.707Z,16.60
2018-10-21T11:54:59.720Z,16.50
2018-10-21T11:55:59.712Z,16.30
2018-10-21T11:56:59.720Z,16.80
2018-10-21T11:57:59.770Z,17.50
2018-10-21T11:58:59.729Z,16.40
2018-10-21T11:59:59.742Z,16.20
2018-10-21T12:00:59.739Z,16.50
2018-10-21T12:01:59.740Z,15.80
2018-10-21T12:02:59.780Z,15.70
2018-10-21T12:03:59.784Z,14.60
2018-10-21T12:04:59.775Z,13.40
2018-10-21T12:05:59.741Z,12.90
2018-10-21T12:06:59.762Z,12.90
2018-10-21T12:07:59.789Z,12.50
2018-10-21T12:08:59.766Z,11.50
2018-10-21T12:09:59.762Z,10.40
2018-10-21T12:10:59.769Z,11.70
2018-10-21T12:11:59.767Z,11.60
2018-10-21T12:12:59.791Z,12.40
2018-10-21T12:13:59.767Z,14.20
2018-10-21T12:14:59.772Z,14.40
2018-10-21T12:15:59.827Z,14.20
2018-10-21T12:16:59.785Z,13.10
2018-10-21T12:17:59.775Z,13.00
2018-10-21T12:18:59.843Z,13.10
2018-10-21T12:19:59.822Z,13.40
2018-10-21T12:20:59.803Z,13.60
2018-10-21T12:21:59.868Z,13.60
2018-10-21T12:22:59.864Z,13.40
2018-10-21T12:23:59.802Z,14.10
2018-10-21T12:24:59.821Z,13.60
2018-10-21T12:25:59.819Z,14.50
2018-10-21T12:26:59.833Z,13.60
2018-10-21T12:27:59.833Z,13.40
2018-10-21T12:28:59.892Z,13.00
2018-10-21T12:29:59.838Z,13.10
2018-10-21T12:30:59.851Z,12.70
2018-10-21T12:31:59.838Z,13.40
2018-10-21T12:32:59.822Z,13.70
2018-10-21T12:33:59.837Z,14.80
2018-10-21T12:34:59.873Z,14.30
2018-10-21T12:35:59.840Z,13.70
2018-10-21T12:36:59.853Z,12.20
2018-10-21T12:37:59.840Z,11.80
2018-10-21T12:38:59.841Z,11.40
2018-10-21T12:39:59.884Z,11.80
2018-10-21T12:40:59.882Z,12.00
2018-10-21T12:41:59.910Z,12.40
2018-10-21T12:42:59.880Z,13.30
2018-10-21T12:43:59.848Z,13.00
2018-10-21T12:44:59.849Z,13.60
2018-10-21T12:45:59.876Z,12.90
2018-10-21T12:46:59.910Z,12.70
2018-10-21T12:48:01.519Z,13.10
2018-10-21T12:48:59.886Z,12.40
2018-10-21T12:49:59.868Z,14.10
2018-10-21T12:50:59.880Z,13.70
2018-10-21T12:51:59.921Z,13.50
2018-10-21T12:52:59.929Z,12.90